Time;durP1;ratioP1;P1;durP2;ratioP2;P2;SDS_P1;SDS_P2;PMS_P1;PMS_P2;Temp;Humidity;BMP_temperature;BMP_pressure;BME280_temperature;BME280_humidity;BME280_pressure;Samples;Min_cycle;Max_cycle;Signal;HPM_P1;HPM_P2
2022/07/17 00:00:14;;;;;;;4.78;3.15;;;;;;;;;;4990793;28;20034;-63
2022/07/17 00:02:59;;;;;;;5.95;3.15;;;;;;;;;;5009346;28;20034;-63
2022/07/17 00:05:45;;;;;;;6.57;3.40;;;;;;;;;;4999147;28;20033;-62
2022/07/17 00:08:31;;;;;;;8.15;3.15;;;;;;;;;;5009221;28;20029;-66
2022/07/17 00:11:17;;;;;;;6.28;3.42;;;;;;;;;;5015132;28;20047;-67
2022/07/17 00:14:03;;;;;;;7.15;3.20;;;;;;;;;;5009572;28;20069;-65
2022/07/17 00:16:48;;;;;;;5.10;3.00;;;;;;;;;;5009699;28;20034;-62
2022/07/17 00:19:34;;;;;;;5.47;2.70;;;;;;;;;;5000161;28;20041;-64
2022/07/17 00:22:20;;;;;;;6.63;3.03;;;;;;;;;;4993523;28;20038;-64
2022/07/17 00:25:06;;;;;;;4.55;2.78;;;;;;;;;;5004094;28;20034;-63
2022/07/17 00:27:52;;;;;;;14.00;4.55;;;;;;;;;;4979162;28;20034;-72
2022/07/17 00:30:38;;;;;;;8.55;5.13;;;;;;;;;;4990729;28;20103;-72
2022/07/17 00:33:23;;;;;;;6.32;3.83;;;;;;;;;;4999113;28;20125;-72
2022/07/17 00:36:09;;;;;;;4.82;3.00;;;;;;;;;;5009488;28;26662;-72
2022/07/17 00:38:54;;;;;;;7.60;3.15;;;;;;;;;;5002862;28;20030;-72
2022/07/17 00:41:40;;;;;;;5.60;3.08;;;;;;;;;;5000074;28;20361;-71
2022/07/17 00:44:26;;;;;;;6.57;3.55;;;;;;;;;;4976812;28;20033;-66
2022/07/17 00:47:19;;;;;;;4.78;2.88;;;;;;;;;;4977330;28;20119;-63
2022/07/17 00:50:04;;;;;;;6.47;3.90;;;;;;;;;;4992116;28;20429;-63
2022/07/17 00:52:50;;;;;;;5.75;3.10;;;;;;;;;;4991348;28;20022;-60
2022/07/17 00:55:36;;;;;;;5.47;3.20;;;;;;;;;;4969431;28;20041;-62
2022/07/17 00:58:23;;;;;;;7.93;3.40;;;;;;;;;;4953022;28;20043;-63
2022/07/17 01:01:09;;;;;;;4.53;2.88;;;;;;;;;;4950008;28;20445;-64
2022/07/17 01:03:54;;;;;;;4.82;3.08;;;;;;;;;;4982024;28;20049;-67
2022/07/17 01:06:40;;;;;;;3.60;2.67;;;;;;;;;;4979210;28;20057;-67
2022/07/17 01:09:29;;;;;;;5.60;2.75;;;;;;;;;;4993826;28;20056;-67
2022/07/17 01:12:14;;;;;;;5.10;3.10;;;;;;;;;;4999479;28;20030;-66
2022/07/17 01:15:00;;;;;;;7.88;3.35;;;;;;;;;;4995901;28;20151;-66
2022/07/17 01:17:47;;;;;;;5.72;3.20;;;;;;;;;;4988799;28;20058;-66
2022/07/17 01:20:33;;;;;;;5.05;3.10;;;;;;;;;;4980058;28;20026;-65
2022/07/17 01:23:19;;;;;;;4.68;3.33;;;;;;;;;;4976096;28;21547;-61
2022/07/17 01:26:04;;;;;;;6.38;3.53;;;;;;;;;;4996836;28;20037;-63
2022/07/17 01:28:50;;;;;;;6.05;3.15;;;;;;;;;;4990495;28;20038;-64
2022/07/17 01:31:36;;;;;;;5.57;3.17;;;;;;;;;;4984972;28;20363;-63
2022/07/17 01:34:21;;;;;;;6.18;3.22;;;;;;;;;;4981325;28;20077;-62
2022/07/17 01:37:07;;;;;;;6.93;3.03;;;;;;;;;;5012233;28;20056;-62
2022/07/17 01:39:52;;;;;;;7.82;3.63;;;;;;;;;;4984816;28;20041;-60
2022/07/17 01:42:39;;;;;;;6.30;3.33;;;;;;;;;;5008069;28;20030;-61
2022/07/17 01:45:24;;;;;;;7.70;4.43;;;;;;;;;;5008200;28;20496;-60
2022/07/17 01:48:10;;;;;;;8.25;5.22;;;;;;;;;;5003374;28;20038;-60
2022/07/17 01:50:55;;;;;;;7.07;4.32;;;;;;;;;;5003936;28;20030;-61
2022/07/17 01:53:41;;;;;;;6.20;3.55;;;;;;;;;;5010015;28;20404;-60
2022/07/17 01:56:27;;;;;;;6.10;3.33;;;;;;;;;;5012066;28;20037;-60
2022/07/17 01:59:12;;;;;;;7.88;3.20;;;;;;;;;;5004582;28;20445;-61
2022/07/17 02:01:58;;;;;;;6.07;3.97;;;;;;;;;;5001463;28;20029;-63
2022/07/17 02:04:45;;;;;;;4.60;3.20;;;;;;;;;;5001718;28;20040;-61
2022/07/17 02:07:32;;;;;;;6.10;3.67;;;;;;;;;;5008170;28;20044;-63
2022/07/17 02:10:17;;;;;;;5.55;3.45;;;;;;;;;;5004817;28;20431;-63
2022/07/17 02:13:03;;;;;;;5.45;3.20;;;;;;;;;;4985357;28;20487;-63
2022/07/17 02:15:49;;;;;;;6.18;3.08;;;;;;;;;;4996043;28;20038;-62
2022/07/17 02:18:34;;;;;;;6.82;3.40;;;;;;;;;;5005260;28;20100;-60
2022/07/17 02:21:20;;;;;;;7.78;3.80;;;;;;;;;;5016188;28;20033;-68
2022/07/17 02:24:06;;;;;;;6.30;3.63;;;;;;;;;;5013368;28;20030;-68
2022/07/17 02:26:51;;;;;;;6.60;3.38;;;;;;;;;;5001992;28;20035;-67
2022/07/17 02:29:37;;;;;;;5.88;3.88;;;;;;;;;;4999878;28;20419;-67
2022/07/17 02:32:23;;;;;;;8.82;4.57;;;;;;;;;;4999846;28;20094;-66
2022/07/17 02:35:09;;;;;;;7.15;3.97;;;;;;;;;;5003050;28;20045;-68
2022/07/17 02:37:55;;;;;;;6.57;3.78;;;;;;;;;;4970628;28;20117;-67
2022/07/17 02:40:41;;;;;;;5.82;3.33;;;;;;;;;;4981929;28;20449;-66
2022/07/17 02:43:27;;;;;;;6.28;3.15;;;;;;;;;;4981273;28;20049;-67
2022/07/17 02:46:13;;;;;;;7.65;3.22;;;;;;;;;;4971442;28;20041;-66
2022/07/17 02:48:59;;;;;;;5.03;3.40;;;;;;;;;;5008873;28;20465;-66
2022/07/17 02:51:44;;;;;;;5.28;3.60;;;;;;;;;;4968151;28;20039;-65
2022/07/17 02:54:30;;;;;;;5.75;3.90;;;;;;;;;;4961626;28;20030;-61
2022/07/17 02:57:16;;;;;;;5.43;3.42;;;;;;;;;;4983752;28;20056;-62
2022/07/17 03:00:03;;;;;;;4.82;3.03;;;;;;;;;;4980924;28;20081;-61
2022/07/17 03:02:49;;;;;;;5.32;3.78;;;;;;;;;;4986515;28;20026;-61
2022/07/17 03:05:34;;;;;;;6.32;3.60;;;;;;;;;;4984963;28;20044;-67
2022/07/17 03:08:20;;;;;;;6.18;3.28;;;;;;;;;;4981214;28;20072;-61
2022/07/17 03:11:06;;;;;;;6.13;3.63;;;;;;;;;;4990320;28;20034;-61
2022/07/17 03:13:51;;;;;;;4.10;3.38;;;;;;;;;;4987581;28;20042;-70
2022/07/17 03:16:37;;;;;;;7.40;3.60;;;;;;;;;;4974139;28;20045;-66
2022/07/17 03:19:22;;;;;;;7.63;3.65;;;;;;;;;;4994506;28;20492;-63
2022/07/17 03:22:08;;;;;;;3.83;3.00;;;;;;;;;;4985180;28;20034;-65
2022/07/17 03:24:54;;;;;;;4.43;3.35;;;;;;;;;;4993239;28;20035;-66
2022/07/17 03:27:39;;;;;;;7.63;3.33;;;;;;;;;;4995678;28;20121;-68
2022/07/17 03:30:25;;;;;;;3.97;3.33;;;;;;;;;;4994352;28;20445;-67
2022/07/17 03:33:10;;;;;;;6.85;3.65;;;;;;;;;;5002003;28;20030;-62
2022/07/17 03:35:56;;;;;;;4.72;3.40;;;;;;;;;;4996207;28;20033;-61
2022/07/17 03:38:42;;;;;;;5.47;3.42;;;;;;;;;;4987749;28;20074;-60
2022/07/17 03:41:27;;;;;;;4.72;3.17;;;;;;;;;;4988807;28;20042;-62
2022/07/17 03:44:13;;;;;;;6.53;3.15;;;;;;;;;;5000942;28;20042;-61
2022/07/17 03:46:59;;;;;;;4.32;3.10;;;;;;;;;;4999875;28;20104;-63
2022/07/17 03:49:44;;;;;;;5.15;3.35;;;;;;;;;;4996903;28;20449;-61
2022/07/17 03:52:30;;;;;;;5.15;3.30;;;;;;;;;;4998803;28;20038;-74
2022/07/17 03:55:15;;;;;;;4.05;2.70;;;;;;;;;;4995854;28;20030;-72
2022/07/17 03:58:01;;;;;;;8.10;3.45;;;;;;;;;;5002544;28;20030;-72
2022/07/17 04:00:46;;;;;;;7.00;3.92;;;;;;;;;;5003326;28;20105;-73
2022/07/17 04:03:32;;;;;;;6.63;3.65;;;;;;;;;;4984254;28;20030;-65
2022/07/17 04:06:18;;;;;;;6.88;3.13;;;;;;;;;;4994162;28;20037;-64
2022/07/17 04:09:04;;;;;;;9.00;3.95;;;;;;;;;;4995839;28;20053;-74
2022/07/17 04:11:49;;;;;;;4.50;3.42;;;;;;;;;;4983012;28;20034;-72
2022/07/17 04:14:35;;;;;;;4.97;3.30;;;;;;;;;;4991725;28;20489;-72
2022/07/17 04:17:20;;;;;;;5.68;3.42;;;;;;;;;;4982111;28;20065;-73
2022/07/17 04:20:06;;;;;;;6.40;3.40;;;;;;;;;;4972069;28;20049;-74
2022/07/17 04:22:52;;;;;;;6.40;3.30;;;;;;;;;;4977309;28;20026;-75
2022/07/17 04:25:37;;;;;;;6.93;3.63;;;;;;;;;;4994434;28;20528;-61
2022/07/17 04:28:23;;;;;;;5.05;3.28;;;;;;;;;;4989035;28;20033;-73
2022/07/17 04:31:08;;;;;;;6.47;3.50;;;;;;;;;;4977308;28;20356;-72
2022/07/17 04:33:54;;;;;;;4.85;2.97;;;;;;;;;;4959581;28;20046;-74
2022/07/17 04:36:40;;;;;;;4.82;3.20;;;;;;;;;;4974401;28;20135;-72
2022/07/17 04:39:25;;;;;;;4.88;3.47;;;;;;;;;;4987839;28;20040;-72
2022/07/17 04:42:11;;;;;;;5.32;3.60;;;;;;;;;;4991123;28;20125;-71
2022/07/17 04:44:56;;;;;;;6.25;3.13;;;;;;;;;;4972970;28;20390;-62
2022/07/17 04:47:42;;;;;;;5.72;3.65;;;;;;;;;;4996754;28;20342;-72
2022/07/17 04:50:28;;;;;;;4.88;3.38;;;;;;;;;;4964100;28;20049;-73
2022/07/17 04:53:13;;;;;;;5.50;3.10;;;;;;;;;;4989808;28;20042;-73
2022/07/17 04:55:59;;;;;;;9.45;4.00;;;;;;;;;;4998048;28;20474;-74
2022/07/17 04:58:44;;;;;;;9.38;4.10;;;;;;;;;;4998736;28;20072;-72
2022/07/17 05:01:30;;;;;;;5.95;3.17;;;;;;;;;;4979241;28;20031;-73
2022/07/17 05:04:16;;;;;;;6.63;3.63;;;;;;;;;;4976281;28;20553;-72
2022/07/17 05:07:01;;;;;;;6.93;3.50;;;;;;;;;;4975985;28;20434;-61
2022/07/17 05:09:47;;;;;;;4.45;3.35;;;;;;;;;;4983833;28;20032;-61
2022/07/17 05:12:32;;;;;;;5.72;2.80;;;;;;;;;;4959782;28;20422;-60
2022/07/17 05:15:18;;;;;;;6.40;3.30;;;;;;;;;;4998003;28;20045;-61
2022/07/17 05:18:04;;;;;;;5.40;3.90;;;;;;;;;;4978981;28;20088;-63
2022/07/17 05:20:49;;;;;;;8.68;4.85;;;;;;;;;;4995081;28;20100;-64
2022/07/17 05:23:35;;;;;;;3.13;2.83;;;;;;;;;;4991999;28;20036;-70
2022/07/17 05:26:20;;;;;;;6.78;3.65;;;;;;;;;;4980031;28;20048;-70
2022/07/17 05:29:06;;;;;;;8.32;3.60;;;;;;;;;;4985888;28;20042;-70
2022/07/17 05:31:52;;;;;;;5.35;3.33;;;;;;;;;;4992179;28;20030;-70
2022/07/17 05:34:37;;;;;;;5.15;3.40;;;;;;;;;;4989658;28;20030;-71
2022/07/17 05:37:23;;;;;;;5.95;3.42;;;;;;;;;;5005692;28;20399;-72
2022/07/17 05:40:08;;;;;;;6.15;3.22;;;;;;;;;;5015635;28;20466;-74
2022/07/17 05:42:54;;;;;;;5.07;3.50;;;;;;;;;;4997664;28;20030;-61
2022/07/17 05:45:40;;;;;;;6.50;3.80;;;;;;;;;;5004743;28;20124;-64
2022/07/17 05:48:25;;;;;;;6.40;3.55;;;;;;;;;;5000272;28;20500;-63
2022/07/17 05:51:11;;;;;;;4.70;3.28;;;;;;;;;;4997439;28;20038;-62
2022/07/17 05:53:56;;;;;;;4.78;3.10;;;;;;;;;;4997789;28;20026;-61
2022/07/17 05:56:42;;;;;;;6.63;3.70;;;;;;;;;;4992190;28;20070;-60
2022/07/17 05:59:28;;;;;;;7.05;3.47;;;;;;;;;;4983507;28;20053;-61
2022/07/17 06:02:13;;;;;;;6.22;4.20;;;;;;;;;;4999522;28;20049;-74
2022/07/17 06:04:59;;;;;;;5.40;3.55;;;;;;;;;;4990785;28;20064;-72
2022/07/17 06:07:44;;;;;;;5.55;3.40;;;;;;;;;;4995190;28;24609;-72
2022/07/17 06:10:30;;;;;;;9.73;4.40;;;;;;;;;;4987602;28;20030;-72
2022/07/17 06:13:16;;;;;;;8.63;4.00;;;;;;;;;;4976687;28;20061;-71
2022/07/17 06:16:01;;;;;;;7.50;4.00;;;;;;;;;;4974687;28;20075;-63
2022/07/17 06:18:47;;;;;;;7.13;3.72;;;;;;;;;;4958625;28;20482;-64
2022/07/17 06:21:32;;;;;;;6.32;3.53;;;;;;;;;;4978326;28;20044;-63
2022/07/17 06:24:18;;;;;;;7.03;3.75;;;;;;;;;;4992144;28;20094;-63
2022/07/17 06:27:04;;;;;;;5.68;3.40;;;;;;;;;;5008124;28;20045;-62
2022/07/17 06:29:49;;;;;;;8.13;3.40;;;;;;;;;;5010944;28;20064;-64
2022/07/17 06:32:35;;;;;;;6.53;3.30;;;;;;;;;;4998380;28;20034;-62
2022/07/17 06:35:21;;;;;;;5.63;3.80;;;;;;;;;;5006862;28;20045;-64
2022/07/17 06:38:06;;;;;;;6.43;3.70;;;;;;;;;;5018092;28;20061;-63
2022/07/17 06:40:52;;;;;;;6.05;2.90;;;;;;;;;;4987532;28;20053;-60
2022/07/17 06:43:37;;;;;;;7.65;3.58;;;;;;;;;;4984788;28;20038;-61
2022/07/17 06:46:23;;;;;;;5.65;3.55;;;;;;;;;;5006087;28;20069;-61
2022/07/17 06:49:09;;;;;;;9.50;3.30;;;;;;;;;;5008415;28;20461;-62
2022/07/17 06:51:55;;;;;;;5.65;3.30;;;;;;;;;;5012221;28;20168;-61
2022/07/17 06:54:41;;;;;;;6.15;3.45;;;;;;;;;;5012445;28;20379;-65
2022/07/17 06:57:26;;;;;;;9.88;4.13;;;;;;;;;;5001890;28;20030;-61
2022/07/17 07:00:12;;;;;;;7.97;3.65;;;;;;;;;;4980772;28;20076;-64
2022/07/17 07:02:58;;;;;;;7.30;3.17;;;;;;;;;;4995402;28;20444;-61
2022/07/17 07:05:44;;;;;;;7.20;3.30;;;;;;;;;;5013413;28;20029;-62
2022/07/17 07:08:30;;;;;;;7.10;3.50;;;;;;;;;;5004965;28;20056;-61
2022/07/17 07:11:15;;;;;;;4.97;2.90;;;;;;;;;;5012548;28;20479;-61
2022/07/17 07:14:01;;;;;;;4.60;3.13;;;;;;;;;;5007550;28;30451;-72
2022/07/17 07:16:46;;;;;;;7.00;3.40;;;;;;;;;;5005639;28;20046;-71
2022/07/17 07:19:32;;;;;;;4.78;3.00;;;;;;;;;;5016145;28;20117;-71
2022/07/17 07:22:17;;;;;;;8.60;3.78;;;;;;;;;;5010971;28;20461;-72
2022/07/17 07:25:04;;;;;;;8.73;3.35;;;;;;;;;;5006616;28;20480;-71
2022/07/17 07:27:49;;;;;;;5.45;3.13;;;;;;;;;;5002680;28;20029;-72
2022/07/17 07:30:35;;;;;;;3.38;2.65;;;;;;;;;;5014084;28;20037;-74
2022/07/17 07:33:20;;;;;;;5.65;3.10;;;;;;;;;;4992984;28;20088;-64
2022/07/17 07:36:06;;;;;;;4.70;2.97;;;;;;;;;;5018696;28;20119;-63
2022/07/17 07:38:52;;;;;;;8.13;3.22;;;;;;;;;;4991273;28;20033;-63
2022/07/17 07:41:37;;;;;;;8.45;3.97;;;;;;;;;;5002227;28;20440;-64
2022/07/17 07:44:23;;;;;;;4.00;3.15;;;;;;;;;;5013766;28;20040;-63
2022/07/17 07:47:09;;;;;;;7.03;3.03;;;;;;;;;;5003580;28;20349;-62
2022/07/17 07:49:54;;;;;;;5.18;3.08;;;;;;;;;;5008798;28;20022;-61
2022/07/17 07:52:40;;;;;;;5.53;3.50;;;;;;;;;;4997913;28;20032;-72
2022/07/17 07:55:26;;;;;;;6.63;3.08;;;;;;;;;;5013417;28;20468;-71
2022/07/17 07:58:12;;;;;;;4.55;2.65;;;;;;;;;;5016908;28;20080;-71
2022/07/17 08:00:58;;;;;;;6.15;2.88;;;;;;;;;;5009642;28;20372;-71
2022/07/17 08:03:43;;;;;;;5.15;3.30;;;;;;;;;;5018030;28;20072;-72
2022/07/17 08:06:29;;;;;;;4.97;3.13;;;;;;;;;;5020987;28;20029;-63
2022/07/17 08:09:15;;;;;;;5.75;3.20;;;;;;;;;;5001315;28;21612;-60
2022/07/17 08:12:00;;;;;;;7.40;3.20;;;;;;;;;;4994355;28;20369;-62
2022/07/17 08:14:46;;;;;;;5.20;2.85;;;;;;;;;;4999094;28;20037;-61
2022/07/17 08:17:31;;;;;;;4.75;3.00;;;;;;;;;;4989693;28;20045;-61
2022/07/17 08:20:17;;;;;;;6.75;2.67;;;;;;;;;;4982943;28;20806;-63
2022/07/17 08:23:03;;;;;;;2.92;2.42;;;;;;;;;;4993614;28;20105;-61
2022/07/17 08:25:49;;;;;;;5.10;2.67;;;;;;;;;;4989984;28;20026;-73
2022/07/17 08:28:34;;;;;;;3.92;2.10;;;;;;;;;;5002596;28;20040;-71
2022/07/17 08:31:20;;;;;;;4.78;2.50;;;;;;;;;;5003292;28;20473;-70
2022/07/17 08:34:05;;;;;;;5.10;2.50;;;;;;;;;;5003673;28;20480;-71
2022/07/17 08:36:51;;;;;;;4.30;2.28;;;;;;;;;;4983312;28;20117;-70
2022/07/17 08:39:37;;;;;;;5.93;2.38;;;;;;;;;;5000975;28;20429;-70
2022/07/17 08:42:22;;;;;;;3.80;2.40;;;;;;;;;;5002648;28;20432;-70
2022/07/17 08:45:09;;;;;;;4.13;2.30;;;;;;;;;;5001373;28;20144;-63
2022/07/17 08:47:55;;;;;;;4.85;2.17;;;;;;;;;;4996905;28;20125;-63
2022/07/17 08:50:40;;;;;;;2.47;2.17;;;;;;;;;;4989182;28;20037;-63
2022/07/17 08:53:26;;;;;;;5.05;2.65;;;;;;;;;;4975694;28;20048;-62
2022/07/17 08:56:12;;;;;;;6.88;2.30;;;;;;;;;;4993955;28;20370;-62
2022/07/17 08:58:57;;;;;;;2.88;2.35;;;;;;;;;;4999980;28;20034;-63
2022/07/17 09:01:43;;;;;;;3.58;2.00;;;;;;;;;;4997392;28;20480;-65
2022/07/17 09:04:29;;;;;;;3.25;1.90;;;;;;;;;;4994379;28;20441;-71
2022/07/17 09:07:14;;;;;;;4.22;2.05;;;;;;;;;;4978899;28;20046;-71
2022/07/17 09:10:00;;;;;;;4.15;2.53;;;;;;;;;;4994363;28;20101;-71
2022/07/17 09:12:46;;;;;;;4.30;2.05;;;;;;;;;;4987690;28;20031;-71
2022/07/17 09:15:32;;;;;;;5.18;2.63;;;;;;;;;;4995486;28;20121;-71
2022/07/17 09:18:19;;;;;;;3.03;1.98;;;;;;;;;;4989282;28;20042;-73
2022/07/17 09:21:05;;;;;;;5.63;2.30;;;;;;;;;;4991626;28;20029;-61
2022/07/17 09:23:57;;;;;;;5.78;2.17;;;;;;;;;;5015245;28;20041;-71
2022/07/17 09:26:44;;;;;;;3.03;1.95;;;;;;;;;;5000254;28;20138;-72
2022/07/17 09:29:30;;;;;;;3.22;2.17;;;;;;;;;;5004611;28;20041;-72
2022/07/17 09:32:19;;;;;;;3.35;1.60;;;;;;;;;;5003500;28;20041;-72
2022/07/17 09:35:06;;;;;;;2.97;1.95;;;;;;;;;;4999211;28;20030;-72
2022/07/17 09:37:52;;;;;;;4.13;1.80;;;;;;;;;;5002374;28;20026;-70
2022/07/17 09:43:44;;;;;;;8.90;2.58;;;;;;;;;;4987391;28;20037;-71
2022/07/17 09:46:31;;;;;;;20.75;6.30;;;;;;;;;;4985401;28;20030;-70
2022/07/17 09:49:17;;;;;;;9.30;3.47;;;;;;;;;;4979240;28;20046;-71
2022/07/17 09:52:03;;;;;;;13.82;4.15;;;;;;;;;;4985582;28;20030;-71
2022/07/17 09:54:51;;;;;;;16.30;4.57;;;;;;;;;;4978344;28;20371;-72
2022/07/17 09:57:39;;;;;;;8.95;3.13;;;;;;;;;;4971618;28;20029;-67
2022/07/17 10:00:25;;;;;;;7.07;2.28;;;;;;;;;;4967731;28;20378;-62
2022/07/17 10:03:11;;;;;;;13.15;3.10;;;;;;;;;;4997076;28;20037;-61
2022/07/17 10:05:57;;;;;;;4.30;1.98;;;;;;;;;;5010250;28;20038;-60
2022/07/17 10:08:42;;;;;;;5.07;2.42;;;;;;;;;;4993806;28;20026;-60
2022/07/17 10:11:30;;;;;;;9.55;2.70;;;;;;;;;;4985394;28;20392;-61
2022/07/17 10:14:18;;;;;;;4.50;1.98;;;;;;;;;;5007067;28;20064;-64
2022/07/17 10:17:11;;;;;;;12.32;2.13;;;;;;;;;;5010373;28;20518;-60
2022/07/17 10:19:57;;;;;;;4.68;2.40;;;;;;;;;;5017062;28;20116;-63
2022/07/17 10:22:44;;;;;;;9.07;2.38;;;;;;;;;;5019492;28;20419;-62
2022/07/17 10:25:30;;;;;;;4.55;2.10;;;;;;;;;;4996253;28;20479;-66
2022/07/17 10:28:16;;;;;;;4.70;3.22;;;;;;;;;;5000141;28;20562;-63
2022/07/17 10:31:01;;;;;;;3.40;2.70;;;;;;;;;;4987417;28;20152;-63
2022/07/17 10:33:54;;;;;;;6.00;2.50;;;;;;;;;;4958527;28;20041;-76
2022/07/17 10:36:41;;;;;;;2.00;1.60;;;;;;;;;;4973267;28;20026;-60
2022/07/17 10:39:26;;;;;;;3.60;2.05;;;;;;;;;;4976951;28;20039;-59
2022/07/17 10:42:12;;;;;;;4.35;2.33;;;;;;;;;;4975610;28;20038;-60
2022/07/17 10:45:05;;;;;;;2.63;1.75;;;;;;;;;;4988376;28;20029;-63
2022/07/17 10:47:52;;;;;;;4.80;2.63;;;;;;;;;;5007145;28;20056;-60
2022/07/17 10:50:50;;;;;;;5.13;2.58;;;;;;;;;;5004141;28;20598;-62
2022/07/17 10:53:36;;;;;;;4.00;2.22;;;;;;;;;;4992463;28;20037;-67
2022/07/17 10:56:21;;;;;;;6.75;2.45;;;;;;;;;;5006958;28;20130;-63
2022/07/17 10:59:07;;;;;;;3.50;2.00;;;;;;;;;;5002443;28;20041;-61
2022/07/17 11:01:57;;;;;;;4.40;1.98;;;;;;;;;;5009996;28;21948;-62
2022/07/17 11:04:42;;;;;;;3.00;1.60;;;;;;;;;;4992001;28;20420;-61
2022/07/17 11:07:28;;;;;;;6.57;2.03;;;;;;;;;;5004151;28;20464;-61
2022/07/17 11:10:13;;;;;;;6.55;2.60;;;;;;;;;;4993431;28;20185;-67
2022/07/17 11:13:13;;;;;;;4.10;2.30;;;;;;;;;;5004753;28;21958;-66
2022/07/17 11:15:58;;;;;;;4.10;2.45;;;;;;;;;;5006589;28;20122;-64
2022/07/17 11:18:47;;;;;;;4.10;2.03;;;;;;;;;;5011923;28;20048;-62
2022/07/17 11:21:35;;;;;;;3.55;2.22;;;;;;;;;;5011993;28;20056;-63
2022/07/17 11:24:20;;;;;;;3.83;2.17;;;;;;;;;;5015596;28;20045;-64
2022/07/17 11:27:06;;;;;;;2.67;1.73;;;;;;;;;;4998049;28;20557;-67
2022/07/17 11:29:53;;;;;;;4.60;1.80;;;;;;;;;;4993564;28;20489;-65
2022/07/17 11:32:38;;;;;;;1.67;1.58;;;;;;;;;;4973773;28;20378;-69
2022/07/17 11:35:24;;;;;;;3.30;1.70;;;;;;;;;;5001889;28;20038;-66
2022/07/17 11:38:10;;;;;;;3.22;1.75;;;;;;;;;;4988945;28;20037;-66
2022/07/17 11:40:55;;;;;;;2.88;1.88;;;;;;;;;;4992461;28;20101;-71
2022/07/17 11:43:41;;;;;;;3.17;1.67;;;;;;;;;;5000021;28;20384;-66
2022/07/17 11:46:28;;;;;;;3.30;1.75;;;;;;;;;;4973416;28;20033;-71
2022/07/17 11:49:46;;;;;;;2.08;1.58;;;;;;;;;;4992720;28;20034;-67
2022/07/17 11:52:39;;;;;;;3.60;1.52;;;;;;;;;;4957820;28;20103;-73
2022/07/17 11:55:34;;;;;;;2.97;1.90;;;;;;;;;;4987013;28;20044;-73
2022/07/17 11:58:20;;;;;;;5.63;1.77;;;;;;;;;;5009579;28;20040;-74
2022/07/17 12:01:05;;;;;;;2.28;1.33;;;;;;;;;;5006923;28;20389;-74
2022/07/17 12:03:58;;;;;;;7.68;1.70;;;;;;;;;;5008608;28;20033;-74
2022/07/17 12:06:45;;;;;;;2.58;1.50;;;;;;;;;;4974142;28;20061;-77
2022/07/17 12:09:34;;;;;;;2.67;1.65;;;;;;;;;;4998363;28;20033;-67
2022/07/17 12:12:20;;;;;;;2.38;1.60;;;;;;;;;;4998843;28;20044;-66
2022/07/17 12:15:06;;;;;;;2.90;1.38;;;;;;;;;;5012292;28;20473;-66
2022/07/17 12:17:51;;;;;;;1.92;1.70;;;;;;;;;;5017632;28;20480;-66
2022/07/17 12:20:41;;;;;;;2.00;1.50;;;;;;;;;;5016376;28;20617;-67
2022/07/17 12:23:27;;;;;;;2.45;1.50;;;;;;;;;;5016140;28;20103;-69
2022/07/17 12:26:15;;;;;;;2.63;1.90;;;;;;;;;;5012742;28;20064;-65
2022/07/17 12:29:01;;;;;;;1.60;1.50;;;;;;;;;;5008536;28;20100;-77
2022/07/17 12:31:46;;;;;;;7.32;2.00;;;;;;;;;;5009358;28;20037;-78
2022/07/17 12:34:33;;;;;;;2.72;1.70;;;;;;;;;;4993217;28;20064;-75
2022/07/17 12:37:20;;;;;;;3.78;2.08;;;;;;;;;;4991993;28;20088;-75
2022/07/17 12:40:06;;;;;;;2.38;1.70;;;;;;;;;;4995677;28;20052;-76
2022/07/17 12:42:51;;;;;;;2.47;1.52;;;;;;;;;;5004973;28;20077;-72
2022/07/17 12:45:37;;;;;;;2.05;1.63;;;;;;;;;;4989032;28;20071;-66
2022/07/17 12:48:22;;;;;;;2.25;1.75;;;;;;;;;;4993709;28;20065;-67
2022/07/17 12:51:09;;;;;;;2.67;2.00;;;;;;;;;;4994555;28;20157;-68
2022/07/17 12:53:54;;;;;;;4.53;1.77;;;;;;;;;;4985455;28;21368;-68
2022/07/17 12:56:40;;;;;;;3.38;1.77;;;;;;;;;;4979080;28;20034;-68
2022/07/17 12:59:26;;;;;;;5.47;2.22;;;;;;;;;;4984576;28;20096;-68
2022/07/17 13:02:11;;;;;;;2.95;1.80;;;;;;;;;;4991313;28;20040;-65
2022/07/17 13:04:57;;;;;;;2.03;1.50;;;;;;;;;;4983173;28;20567;-77
2022/07/17 13:07:42;;;;;;;4.82;1.80;;;;;;;;;;4982034;28;20042;-78
2022/07/17 13:10:28;;;;;;;1.83;1.20;;;;;;;;;;4994045;28;20594;-76
2022/07/17 13:13:14;;;;;;;3.88;2.13;;;;;;;;;;4970302;28;20402;-74
2022/07/17 13:15:59;;;;;;;2.05;1.50;;;;;;;;;;4994340;28;20029;-76
2022/07/17 13:18:45;;;;;;;3.13;1.75;;;;;;;;;;4975586;28;20041;-69
2022/07/17 13:21:31;;;;;;;4.18;1.92;;;;;;;;;;4999010;28;20095;-70
2022/07/17 13:24:17;;;;;;;4.32;1.63;;;;;;;;;;4985591;28;20092;-65
2022/07/17 13:27:02;;;;;;;2.90;1.50;;;;;;;;;;4978878;28;20476;-66
2022/07/17 13:29:48;;;;;;;3.70;2.00;;;;;;;;;;4975668;28;20083;-66
2022/07/17 13:32:34;;;;;;;1.95;1.52;;;;;;;;;;4977679;28;20072;-65
2022/07/17 13:35:19;;;;;;;2.35;1.70;;;;;;;;;;4967496;28;20044;-65
2022/07/17 13:38:07;;;;;;;6.72;3.85;;;;;;;;;;4978786;28;20037;-76
2022/07/17 13:40:53;;;;;;;11.82;5.28;;;;;;;;;;4983841;28;21010;-69
2022/07/17 13:43:38;;;;;;;8.63;4.53;;;;;;;;;;4996148;28;20053;-68
2022/07/17 13:46:24;;;;;;;11.25;4.75;;;;;;;;;;4991158;28;20088;-67
2022/07/17 13:49:09;;;;;;;9.85;4.80;;;;;;;;;;4972796;28;20037;-69
2022/07/17 13:51:55;;;;;;;6.63;4.47;;;;;;;;;;4991171;28;20385;-67
2022/07/17 13:54:41;;;;;;;2.78;2.20;;;;;;;;;;4967323;28;20086;-69
2022/07/17 13:57:26;;;;;;;6.22;2.60;;;;;;;;;;4997569;28;20042;-71
2022/07/17 14:00:12;;;;;;;5.40;3.13;;;;;;;;;;4985340;28;20127;-73
2022/07/17 14:02:58;;;;;;;3.78;1.92;;;;;;;;;;4993458;28;20034;-73
2022/07/17 14:05:43;;;;;;;3.60;2.40;;;;;;;;;;4995741;28;20057;-73
2022/07/17 14:08:30;;;;;;;3.38;2.53;;;;;;;;;;4984690;28;20416;-73
2022/07/17 14:11:16;;;;;;;2.72;1.75;;;;;;;;;;4993290;28;20056;-73
2022/07/17 14:14:01;;;;;;;6.43;2.58;;;;;;;;;;4980302;28;20030;-66
2022/07/17 14:16:47;;;;;;;3.60;1.77;;;;;;;;;;4955470;28;20082;-71
2022/07/17 14:19:33;;;;;;;3.15;1.73;;;;;;;;;;4950005;28;20035;-74
2022/07/17 14:22:19;;;;;;;4.25;2.15;;;;;;;;;;4931405;28;20079;-72
2022/07/17 14:25:05;;;;;;;3.95;1.48;;;;;;;;;;4953563;28;20043;-72
2022/07/17 14:27:50;;;;;;;3.63;1.52;;;;;;;;;;4935225;28;20463;-72
2022/07/17 14:30:36;;;;;;;2.97;1.75;;;;;;;;;;4949686;28;20113;-72
2022/07/17 14:33:21;;;;;;;3.33;1.77;;;;;;;;;;4905977;28;20035;-79
2022/07/17 14:36:08;;;;;;;2.05;1.45;;;;;;;;;;4932610;28;20027;-72
2022/07/17 14:38:53;;;;;;;4.85;1.80;;;;;;;;;;4949871;28;20494;-73
2022/07/17 14:41:40;;;;;;;4.28;1.70;;;;;;;;;;4955592;28;20482;-71
2022/07/17 14:44:27;;;;;;;3.33;1.88;;;;;;;;;;4941019;28;20394;-72
2022/07/17 14:47:12;;;;;;;2.47;1.67;;;;;;;;;;4969275;28;20034;-73
2022/07/17 14:49:58;;;;;;;3.67;1.38;;;;;;;;;;4983874;28;20030;-73
2022/07/17 14:52:44;;;;;;;2.13;1.60;;;;;;;;;;4977118;28;20102;-64
2022/07/17 14:55:29;;;;;;;2.83;1.63;;;;;;;;;;4944532;28;20438;-66
2022/07/17 14:58:15;;;;;;;1.45;1.35;;;;;;;;;;4922754;28;20433;-63
2022/07/17 15:01:01;;;;;;;2.38;1.33;;;;;;;;;;4938916;28;20101;-65
2022/07/17 15:03:46;;;;;;;3.60;1.73;;;;;;;;;;4969120;28;20025;-64
2022/07/17 15:06:32;;;;;;;3.22;1.52;;;;;;;;;;4938956;28;20452;-64
2022/07/17 15:09:17;;;;;;;3.80;1.60;;;;;;;;;;4947177;28;20130;-64
2022/07/17 15:12:03;;;;;;;2.92;1.60;;;;;;;;;;4933421;28;20034;-69
2022/07/17 15:14:49;;;;;;;2.25;1.70;;;;;;;;;;4956441;28;20426;-72
2022/07/17 15:17:35;;;;;;;1.60;1.30;;;;;;;;;;4941638;28;20042;-73
2022/07/17 15:20:20;;;;;;;3.15;1.60;;;;;;;;;;4941173;28;20043;-71
2022/07/17 15:23:06;;;;;;;4.25;1.50;;;;;;;;;;4958447;28;20086;-72
2022/07/17 15:25:52;;;;;;;2.28;1.50;;;;;;;;;;4976147;28;20056;-72
2022/07/17 15:28:37;;;;;;;1.65;1.40;;;;;;;;;;4980798;28;20365;-67
2022/07/17 15:31:23;;;;;;;4.63;2.60;;;;;;;;;;4971746;28;20041;-64
2022/07/17 15:34:08;;;;;;;2.63;1.60;;;;;;;;;;4988106;28;20485;-64
2022/07/17 15:36:54;;;;;;;5.88;1.70;;;;;;;;;;4936610;28;20050;-64
2022/07/17 15:39:40;;;;;;;4.07;1.70;;;;;;;;;;4934711;28;20035;-63
2022/07/17 15:42:26;;;;;;;3.13;1.30;;;;;;;;;;4930546;28;20121;-61
2022/07/17 15:45:11;;;;;;;3.50;1.50;;;;;;;;;;4984817;28;20029;-63
2022/07/17 15:47:57;;;;;;;2.10;1.50;;;;;;;;;;4980076;28;20494;-64
2022/07/17 15:50:42;;;;;;;2.53;1.65;;;;;;;;;;4964923;28;20034;-65
2022/07/17 15:53:28;;;;;;;2.45;1.60;;;;;;;;;;4954323;28;20057;-64
2022/07/17 15:56:14;;;;;;;1.42;1.33;;;;;;;;;;4972258;28;20489;-63
2022/07/17 15:58:59;;;;;;;1.42;1.33;;;;;;;;;;4976696;28;20041;-66
2022/07/17 16:01:45;;;;;;;3.00;1.65;;;;;;;;;;4952640;28;20039;-63
2022/07/17 16:04:30;;;;;;;2.45;1.63;;;;;;;;;;4953865;28;20381;-65
2022/07/17 16:07:16;;;;;;;1.70;1.50;;;;;;;;;;4951675;28;20469;-62
2022/07/17 16:10:03;;;;;;;1.35;1.25;;;;;;;;;;4953582;28;20480;-63
2022/07/17 16:12:48;;;;;;;1.98;1.50;;;;;;;;;;4982511;28;20050;-64
2022/07/17 16:15:34;;;;;;;2.92;1.70;;;;;;;;;;4979301;28;20054;-64
2022/07/17 16:18:19;;;;;;;2.03;1.70;;;;;;;;;;4966201;28;20038;-64
2022/07/17 16:21:05;;;;;;;2.10;1.63;;;;;;;;;;4991801;28;20409;-64
2022/07/17 16:23:51;;;;;;;3.00;1.60;;;;;;;;;;4971422;28;20038;-68
2022/07/17 16:26:36;;;;;;;2.90;1.85;;;;;;;;;;4966732;28;20035;-78
2022/07/17 16:29:22;;;;;;;3.38;1.70;;;;;;;;;;4973367;28;20038;-81
2022/07/17 16:32:08;;;;;;;3.03;1.70;;;;;;;;;;4957983;28;20031;-77
2022/07/17 16:34:53;;;;;;;2.35;1.55;;;;;;;;;;4969274;28;20120;-77
2022/07/17 16:37:39;;;;;;;2.20;1.65;;;;;;;;;;4933886;28;20107;-80